Time;durP1;ratioP1;P1;durP2;ratioP2;P2;SDS_P1;SDS_P2;PMS_P1;PMS_P2;Temp;Humidity;BMP_temperature;BMP_pressure;BME280_temperature;BME280_humidity;BME280_pressure;Samples;Min_cycle;Max_cycle;Signal;HPM_P1;HPM_P2
2023/06/13 00:03:15;;;;;;;0.70;0.70;;;22.30;56.20;;;;;;8426491;28;20357;-51
2023/06/13 00:07:16;;;;;;;2.58;0.80;;;22.30;56.20;;;;;;8408776;28;20301;-52
2023/06/13 00:11:16;;;;;;;4.38;0.75;;;22.30;56.10;;;;;;8426400;28;20028;-50
2023/06/13 00:15:18;;;;;;;0.90;0.70;;;22.30;56.20;;;;;;8426965;28;20044;-50
2023/06/13 00:19:19;;;;;;;4.43;0.80;;;22.30;56.10;;;;;;8427084;28;20493;-53
2023/06/13 00:23:20;;;;;;;4.95;0.82;;;22.30;56.00;;;;;;8425942;28;20122;-52
2023/06/13 00:27:20;;;;;;;0.88;0.73;;;22.30;56.20;;;;;;8428418;28;20510;-52
2023/06/13 00:31:21;;;;;;;5.80;1.38;;;22.40;56.10;;;;;;8427124;28;20368;-50
2023/06/13 00:35:22;;;;;;;0.80;0.80;;;22.30;56.00;;;;;;8427847;28;20054;-51
2023/06/13 00:39:23;;;;;;;1.25;0.80;;;22.30;56.00;;;;;;8427781;28;20047;-50
2023/06/13 00:43:26;;;;;;;0.52;0.52;;;22.30;56.20;;;;;;8426570;28;20047;-51
2023/06/13 00:47:27;;;;;;;3.25;0.90;;;22.40;56.00;;;;;;8426826;28;20036;-51
2023/06/13 00:51:29;;;;;;;4.57;0.77;;;22.30;55.90;;;;;;8427323;28;20089;-51
2023/06/13 00:55:30;;;;;;;4.43;0.75;;;22.30;56.10;;;;;;8427607;28;20039;-52
2023/06/13 00:59:31;;;;;;;4.32;0.70;;;22.30;56.20;;;;;;8426686;28;20043;-51
2023/06/13 01:03:34;;;;;;;3.25;0.90;;;22.40;56.40;;;;;;8426232;28;20036;-52
2023/06/13 01:07:38;;;;;;;2.05;0.60;;;22.40;56.20;;;;;;8427940;28;20055;-50
2023/06/13 01:11:42;;;;;;;2.72;0.80;;;22.40;55.90;;;;;;8427100;28;20048;-50
2023/06/13 01:15:51;;;;;;;1.00;0.60;;;22.40;56.00;;;;;;8426531;28;20036;-49
2023/06/13 01:19:58;;;;;;;1.05;0.80;;;22.40;55.70;;;;;;8424842;28;20028;-50
2023/06/13 01:24:09;;;;;;;0.98;0.80;;;22.50;55.80;;;;;;8425438;28;20184;-51
2023/06/13 01:28:13;;;;;;;1.77;0.80;;;22.40;55.70;;;;;;8429742;28;20051;-49
2023/06/13 01:32:15;;;;;;;2.20;0.90;;;22.40;55.80;;;;;;8417741;28;20452;-51
2023/06/13 01:36:16;;;;;;;1.58;0.68;;;22.40;55.80;;;;;;8433393;28;20028;-50
2023/06/13 01:40:17;;;;;;;3.80;0.70;;;22.40;56.10;;;;;;8432090;28;20129;-49
2023/06/13 01:44:19;;;;;;;1.67;1.42;;;22.40;55.90;;;;;;8432612;28;20036;-49
2023/06/13 01:48:55;;;;;;;3.42;0.70;;;22.40;55.90;;;;;;8432967;28;20102;-50
2023/06/13 01:53:06;;;;;;;0.85;0.80;;;22.40;55.70;;;;;;8430662;28;20096;-50
2023/06/13 01:57:09;;;;;;;;;;;22.40;55.90;;;;;;8414574;28;20024;-50
2023/06/13 02:01:10;;;;;;;1.05;0.80;;;22.40;55.80;;;;;;8430552;28;19912;-51
2023/06/13 02:05:11;;;;;;;2.50;0.70;;;22.30;56.00;;;;;;8431022;28;20038;-49
2023/06/13 02:09:12;;;;;;;;;;;22.40;55.80;;;;;;8464374;28;20039;-51
2023/06/13 02:13:12;;;;;;;2.13;1.10;;;22.40;55.70;;;;;;8430207;28;19912;-50
2023/06/13 02:17:13;;;;;;;1.83;0.73;;;22.40;55.70;;;;;;8430016;28;20047;-51
2023/06/13 02:21:14;;;;;;;0.77;0.57;;;22.30;55.70;;;;;;8429982;28;20028;-50
2023/06/13 02:25:15;;;;;;;1.38;0.73;;;22.30;55.70;;;;;;8430538;28;20097;-50
2023/06/13 02:29:16;;;;;;;1.08;0.80;;;22.30;55.70;;;;;;8435776;28;20520;-49
2023/06/13 02:33:18;;;;;;;1.05;0.70;;;22.30;55.70;;;;;;8464151;28;20433;-51
2023/06/13 02:37:20;;;;;;;0.73;0.68;;;22.30;55.70;;;;;;8464091;28;20076;-50
2023/06/13 02:41:20;;;;;;;1.00;0.70;;;22.20;55.80;;;;;;8445188;28;20042;-51
2023/06/13 02:45:21;;;;;;;1.33;0.73;;;22.20;55.80;;;;;;8429832;28;20478;-50
2023/06/13 02:49:22;;;;;;;1.52;0.77;;;22.20;55.80;;;;;;8445743;28;20077;-51
2023/06/13 02:53:22;;;;;;;1.30;0.80;;;22.20;55.80;;;;;;8429916;28;20028;-51
2023/06/13 02:57:23;;;;;;;2.33;0.77;;;22.20;55.70;;;;;;8429525;28;20046;-49
2023/06/13 03:01:26;;;;;;;0.70;0.70;;;22.20;55.70;;;;;;8452527;28;20035;-52
2023/06/13 03:05:26;;;;;;;0.82;0.50;;;22.20;55.80;;;;;;8463327;28;20043;-50
2023/06/13 03:09:27;;;;;;;1.30;0.63;;;22.20;55.80;;;;;;8461084;28;20043;-51
2023/06/13 03:13:28;;;;;;;1.42;0.57;;;22.20;55.80;;;;;;8429018;28;20032;-51
2023/06/13 03:17:28;;;;;;;2.45;0.90;;;22.20;55.80;;;;;;8429183;28;20032;-51
2023/06/13 03:21:30;;;;;;;0.60;0.60;;;22.10;55.70;;;;;;8444737;28;20109;-52
2023/06/13 03:25:31;;;;;;;0.75;0.73;;;22.10;55.80;;;;;;8428498;28;20028;-51
2023/06/13 03:29:31;;;;;;;0.73;0.60;;;22.10;55.80;;;;;;8435675;28;20031;-51
2023/06/13 03:33:32;;;;;;;1.25;0.70;;;22.10;55.80;;;;;;8462271;28;20055;-51
2023/06/13 03:37:33;;;;;;;0.60;0.60;;;22.10;55.80;;;;;;8462137;28;20563;-50
2023/06/13 03:41:33;;;;;;;0.70;0.70;;;22.10;55.80;;;;;;8442377;28;20044;-51
2023/06/13 03:45:34;;;;;;;0.63;0.63;;;22.10;55.80;;;;;;8428144;28;20039;-48
2023/06/13 03:49:34;;;;;;;1.08;0.90;;;22.10;55.80;;;;;;8427834;28;20029;-50
2023/06/13 03:53:35;;;;;;;1.02;0.68;;;22.10;55.80;;;;;;8428149;28;20032;-49
2023/06/13 03:57:36;;;;;;;0.80;0.65;;;22.10;55.80;;;;;;8427819;28;20111;-48
2023/06/13 04:01:37;;;;;;;1.17;1.05;;;22.10;55.80;;;;;;8452263;28;20036;-48
2023/06/13 04:05:38;;;;;;;0.82;0.60;;;22.10;55.90;;;;;;8461224;28;20058;-49
2023/06/13 04:09:39;;;;;;;2.10;0.90;;;22.10;55.90;;;;;;8457796;28;20028;-51
2023/06/13 04:13:41;;;;;;;;;;;22.00;55.80;;;;;;8428045;28;20035;-50
2023/06/13 04:17:41;;;;;;;1.15;0.80;;;22.00;55.90;;;;;;8427488;28;19904;-50
2023/06/13 04:21:42;;;;;;;1.27;0.82;;;22.00;55.90;;;;;;8427287;28;20063;-50
2023/06/13 04:25:43;;;;;;;1.38;0.60;;;22.00;55.90;;;;;;8427105;28;20043;-49
2023/06/13 04:29:43;;;;;;;1.33;0.70;;;22.00;55.80;;;;;;8435906;28;20119;-51
2023/06/13 04:33:45;;;;;;;0.57;0.57;;;22.00;55.80;;;;;;8460738;28;20070;-49
2023/06/13 04:37:46;;;;;;;0.60;0.60;;;22.00;55.80;;;;;;8460799;28;20093;-49
2023/06/13 04:41:48;;;;;;;0.60;0.60;;;22.00;55.80;;;;;;8439042;28;20029;-50
2023/06/13 04:45:49;;;;;;;0.65;0.57;;;22.00;55.80;;;;;;8426772;28;20040;-50
2023/06/13 04:49:58;;;;;;;0.93;0.70;;;22.00;55.80;;;;;;8427059;28;20028;-51
2023/06/13 04:54:00;;;;;;;0.60;0.60;;;22.00;55.80;;;;;;8426664;28;20033;-52
2023/06/13 04:58:01;;;;;;;0.70;0.68;;;22.00;55.80;;;;;;8426598;28;20032;-51
2023/06/13 05:02:02;;;;;;;0.75;0.75;;;22.00;55.80;;;;;;8456196;28;20032;-50
2023/06/13 05:06:02;;;;;;;0.88;0.68;;;22.10;55.90;;;;;;8466941;28;20052;-49
2023/06/13 05:10:03;;;;;;;0.70;0.70;;;22.00;55.80;;;;;;8442106;28;20036;-50
2023/06/13 05:14:04;;;;;;;0.60;0.60;;;22.00;56.00;;;;;;8433331;28;20107;-50
2023/06/13 05:18:08;;;;;;;1.10;0.80;;;22.00;55.80;;;;;;8433087;28;20035;-50
2023/06/13 05:22:08;;;;;;;0.80;0.60;;;22.00;55.80;;;;;;8448835;28;20032;-49
2023/06/13 05:26:12;;;;;;;0.50;0.50;;;22.00;55.80;;;;;;8432867;28;20060;-48
2023/06/13 05:30:13;;;;;;;0.50;0.50;;;22.00;55.80;;;;;;8445339;28;20062;-50
2023/06/13 05:34:14;;;;;;;1.08;0.80;;;22.00;55.80;;;;;;8466339;28;20096;-49
2023/06/13 05:38:15;;;;;;;0.70;0.68;;;22.00;55.80;;;;;;8466280;28;20073;-49
2023/06/13 05:42:15;;;;;;;1.05;0.77;;;22.00;55.80;;;;;;8440554;28;20032;-50
2023/06/13 05:46:16;;;;;;;0.60;0.60;;;22.00;55.90;;;;;;8432392;28;20024;-49
2023/06/13 05:50:17;;;;;;;0.70;0.60;;;22.00;55.90;;;;;;8432154;28;20040;-51
2023/06/13 05:54:18;;;;;;;1.60;0.63;;;22.00;55.90;;;;;;8431959;28;20043;-48
2023/06/13 05:58:18;;;;;;;0.65;0.65;;;22.00;55.80;;;;;;8432001;28;20040;-51
2023/06/13 06:02:19;;;;;;;0.73;0.70;;;22.00;55.80;;;;;;8461916;28;20080;-51
2023/06/13 06:06:20;;;;;;;2.22;0.60;;;22.00;55.80;;;;;;8446785;28;20515;-48
2023/06/13 06:10:20;;;;;;;0.65;0.65;;;22.00;55.80;;;;;;8456094;28;20505;-49
2023/06/13 06:14:21;;;;;;;0.70;0.70;;;22.00;55.80;;;;;;8430983;28;20032;-50
2023/06/13 06:18:22;;;;;;;1.13;0.65;;;22.00;55.80;;;;;;8431236;28;20032;-51
2023/06/13 06:22:23;;;;;;;1.70;0.63;;;22.00;55.80;;;;;;8431014;28;20036;-49
2023/06/13 06:26:24;;;;;;;0.63;0.63;;;22.00;55.70;;;;;;8412923;28;20107;-50
2023/06/13 06:30:25;;;;;;;;;;;22.00;55.70;;;;;;8445123;28;20404;-49
2023/06/13 06:34:25;;;;;;;1.07;0.60;;;22.00;55.70;;;;;;8464408;28;19908;-49
2023/06/13 06:38:26;;;;;;;0.50;0.50;;;22.00;55.80;;;;;;8464287;28;20024;-50
2023/06/13 06:42:26;;;;;;;0.60;0.60;;;22.00;55.80;;;;;;8436957;28;20036;-49
2023/06/13 06:46:27;;;;;;;0.70;0.50;;;22.00;55.70;;;;;;8430283;28;20032;-50
2023/06/13 06:50:28;;;;;;;0.50;0.50;;;22.00;55.70;;;;;;8412055;28;20032;-50
2023/06/13 06:54:28;;;;;;;1.05;0.85;;;22.00;55.70;;;;;;8430034;28;20123;-50
2023/06/13 06:58:29;;;;;;;0.70;0.70;;;22.00;55.70;;;;;;8429694;28;20036;-51
2023/06/13 07:02:30;;;;;;;0.75;0.73;;;22.00;55.70;;;;;;8442743;28;20085;-50
2023/06/13 07:06:30;;;;;;;0.60;0.60;;;22.00;55.80;;;;;;8463136;28;20048;-48
2023/06/13 07:10:31;;;;;;;0.70;0.70;;;22.00;55.80;;;;;;8452162;28;20038;-51
2023/06/13 07:14:32;;;;;;;0.52;0.52;;;21.90;55.80;;;;;;8429305;28;20439;-51
2023/06/13 07:18:32;;;;;;;0.55;0.50;;;21.90;55.80;;;;;;8429150;28;20020;-51
2023/06/13 07:22:33;;;;;;;0.68;0.68;;;21.90;55.80;;;;;;8429114;28;20497;-49
2023/06/13 07:26:34;;;;;;;0.93;0.60;;;21.90;56.30;;;;;;8428348;28;20367;-51
2023/06/13 07:30:35;;;;;;;1.20;0.70;;;21.90;55.80;;;;;;8443928;28;20028;-51
2023/06/13 07:34:36;;;;;;;0.93;0.57;;;21.90;55.80;;;;;;8462320;28;20036;-50
2023/06/13 07:38:36;;;;;;;0.70;0.70;;;21.90;55.80;;;;;;8462264;28;20032;-50
2023/06/13 07:42:37;;;;;;;0.43;0.43;;;21.90;55.80;;;;;;8433412;28;20051;-50
2023/06/13 07:46:38;;;;;;;0.80;0.55;;;21.90;55.80;;;;;;8428264;28;20038;-51
2023/06/13 07:50:41;;;;;;;0.60;0.60;;;21.90;55.80;;;;;;8428058;28;20108;-50
2023/06/13 07:54:42;;;;;;;0.75;0.70;;;21.90;55.70;;;;;;8427974;28;20389;-49
2023/06/13 07:58:43;;;;;;;0.90;0.70;;;21.90;55.70;;;;;;8427950;28;20036;-51
2023/06/13 08:02:44;;;;;;;0.70;0.70;;;22.00;55.80;;;;;;8460823;28;20043;-49
2023/06/13 08:06:45;;;;;;;0.70;0.70;;;21.90;55.70;;;;;;8461669;28;20036;-49
2023/06/13 08:10:45;;;;;;;0.93;0.70;;;21.90;55.70;;;;;;8448404;28;20035;-49
2023/06/13 08:14:46;;;;;;;2.03;0.68;;;21.90;55.70;;;;;;8427434;28;20119;-51
2023/06/13 08:18:47;;;;;;;0.50;0.50;;;22.00;55.70;;;;;;8427431;28;20047;-49
2023/06/13 08:22:47;;;;;;;0.70;0.60;;;21.90;55.70;;;;;;8427172;28;20093;-48
2023/06/13 08:26:49;;;;;;;0.52;0.50;;;22.00;55.80;;;;;;8427105;28;20098;-49
2023/06/13 08:30:51;;;;;;;1.15;0.77;;;22.00;55.80;;;;;;8444346;28;20034;-51
2023/06/13 08:34:52;;;;;;;1.02;0.88;;;21.90;55.70;;;;;;8460744;28;20076;-50
2023/06/13 08:38:57;;;;;;;0.82;0.65;;;22.00;55.70;;;;;;8459794;28;20044;-51
2023/06/13 08:43:00;;;;;;;0.60;0.60;;;22.00;55.70;;;;;;8429073;28;20040;-49
2023/06/13 08:47:01;;;;;;;0.60;0.52;;;21.90;55.70;;;;;;8426816;28;20127;-51
2023/06/13 08:51:04;;;;;;;0.60;0.50;;;21.90;55.70;;;;;;8426800;28;20028;-50
2023/06/13 08:55:12;;;;;;;0.70;0.60;;;21.90;55.70;;;;;;8427000;28;20055;-50
2023/06/13 08:59:30;;;;;;;0.63;0.55;;;21.90;55.80;;;;;;8429997;28;20031;-50
2023/06/13 09:03:30;;;;;;;0.60;0.60;;;21.90;55.80;;;;;;8460610;28;20031;-50
2023/06/13 09:07:33;;;;;;;0.60;0.60;;;21.90;55.80;;;;;;8460497;28;20047;-50
2023/06/13 09:11:35;;;;;;;0.88;0.70;;;21.90;55.70;;;;;;8440600;28;20048;-50
2023/06/13 09:15:36;;;;;;;0.65;0.60;;;21.90;56.30;;;;;;8426368;28;20543;-50
2023/06/13 09:19:37;;;;;;;0.93;0.60;;;21.90;55.70;;;;;;8426364;28;20105;-51
2023/06/13 09:23:39;;;;;;;0.50;0.50;;;21.90;55.70;;;;;;8408234;28;20032;-49
2023/06/13 09:27:39;;;;;;;0.50;0.50;;;21.90;55.70;;;;;;8426193;28;20492;-50
2023/06/13 09:31:40;;;;;;;0.82;0.70;;;21.90;55.70;;;;;;8432227;28;20493;-50
2023/06/13 09:35:41;;;;;;;0.80;0.73;;;21.90;55.70;;;;;;8441475;28;20032;-50
2023/06/13 09:39:50;;;;;;;1.80;0.60;;;21.90;55.70;;;;;;8455719;28;20036;-51
2023/06/13 09:43:54;;;;;;;0.95;0.82;;;22.00;55.70;;;;;;8425964;28;20032;-51
2023/06/13 09:47:55;;;;;;;0.88;0.60;;;21.90;55.60;;;;;;8427471;28;20039;-50
2023/06/13 09:51:58;;;;;;;0.70;0.70;;;22.00;55.70;;;;;;8431996;28;20032;-50
2023/06/13 09:55:59;;;;;;;0.73;0.70;;;21.90;55.60;;;;;;8431881;28;20115;-50
2023/06/13 10:00:00;;;;;;;0.80;0.77;;;21.90;55.60;;;;;;8441697;28;20084;-51
2023/06/13 10:04:02;;;;;;;0.85;0.60;;;21.90;55.60;;;;;;8465015;28;20485;-50
2023/06/13 10:08:03;;;;;;;0.80;0.70;;;21.90;55.60;;;;;;8447089;28;20051;-51
2023/06/13 10:12:10;;;;;;;0.65;0.60;;;22.00;55.70;;;;;;8441316;28;20078;-51
2023/06/13 10:16:13;;;;;;;0.63;0.52;;;22.00;55.70;;;;;;8431161;28;20486;-51
2023/06/13 10:20:17;;;;;;;0.60;0.60;;;21.90;55.70;;;;;;8431111;28;20035;-49
2023/06/13 10:24:20;;;;;;;0.70;0.70;;;21.90;55.70;;;;;;8430812;28;20054;-51
2023/06/13 10:28:27;;;;;;;0.60;0.60;;;21.90;55.70;;;;;;8430809;28;20505;-50
2023/06/13 10:32:39;;;;;;;0.47;0.47;;;21.90;55.70;;;;;;8461201;28;20031;-50
2023/06/13 10:37:13;;;;;;;0.52;0.52;;;21.90;55.70;;;;;;8464324;28;20028;-48
2023/06/13 10:41:43;;;;;;;0.60;0.60;;;21.90;55.70;;;;;;8447030;28;20055;-51
2023/06/13 10:45:45;;;;;;;0.70;0.70;;;21.90;55.70;;;;;;8430282;28;20073;-51
2023/06/13 10:49:48;;;;;;;0.50;0.50;;;21.90;55.60;;;;;;8430379;28;20059;-49
2023/06/13 10:54:08;;;;;;;0.63;0.60;;;21.90;55.60;;;;;;8430363;28;20032;-50
2023/06/13 10:58:12;;;;;;;0.50;0.50;;;21.90;55.60;;;;;;8429760;28;20032;-49
2023/06/13 11:02:17;;;;;;;0.60;0.60;;;22.00;55.60;;;;;;8457185;28;20063;-51
2023/06/13 11:06:18;;;;;;;1.38;0.80;;;22.00;55.60;;;;;;8463072;28;20396;-51
2023/06/13 11:10:19;;;;;;;0.60;0.60;;;22.00;55.70;;;;;;8454278;28;20064;-51
2023/06/13 11:14:40;;;;;;;0.98;0.63;;;22.00;55.60;;;;;;8429497;28;20409;-49
2023/06/13 11:18:52;;;;;;;0.50;0.50;;;22.00;55.60;;;;;;8428560;28;20131;-50
2023/06/13 11:22:53;;;;;;;0.70;0.70;;;22.00;55.60;;;;;;8429068;28;20035;-50
2023/06/13 11:26:56;;;;;;;0.52;0.50;;;22.00;55.60;;;;;;8429371;28;20150;-50
2023/06/13 11:31:03;;;;;;;0.50;0.50;;;22.00;55.60;;;;;;8446263;28;20012;-49
2023/06/13 11:35:08;;;;;;;0.55;0.55;;;22.00;55.60;;;;;;8462603;28;20036;-49
2023/06/13 11:39:15;;;;;;;0.70;0.70;;;22.00;55.60;;;;;;8462466;28;20034;-49
2023/06/13 11:43:17;;;;;;;0.40;0.40;;;22.00;55.60;;;;;;8428251;28;20029;-48
2023/06/13 11:47:19;;;;;;;0.88;0.65;;;22.00;55.60;;;;;;8428323;28;20034;-50
2023/06/13 11:51:19;;;;;;;0.93;0.70;;;22.00;55.60;;;;;;8428317;28;20028;-51
2023/06/13 11:55:20;;;;;;;0.93;0.65;;;22.00;55.60;;;;;;8428185;28;20121;-50
2023/06/13 11:59:22;;;;;;;0.57;0.57;;;22.00;55.60;;;;;;8428493;28;20032;-48
2023/06/13 12:03:25;;;;;;;0.50;0.50;;;22.00;55.70;;;;;;8427761;28;20485;-51
2023/06/13 12:07:26;;;;;;;0.70;0.70;;;22.00;56.10;;;;;;8427715;28;20048;-48
2023/06/13 12:11:29;;;;;;;0.60;0.52;;;21.90;55.60;;;;;;8409996;28;20087;-51
2023/06/13 12:15:29;;;;;;;0.55;0.50;;;22.00;55.60;;;;;;8427504;28;20036;-48
2023/06/13 12:19:30;;;;;;;0.60;0.60;;;22.00;55.60;;;;;;8427407;28;20074;-51
2023/06/13 12:23:33;;;;;;;0.50;0.50;;;22.00;55.60;;;;;;8427321;28;20077;-49
2023/06/13 12:27:36;;;;;;;0.70;0.55;;;22.00;55.60;;;;;;8427248;28;20477;-48
2023/06/13 12:31:43;;;;;;;0.75;0.50;;;22.00;55.60;;;;;;8449972;28;20115;-47
2023/06/13 12:35:55;;;;;;;0.50;0.50;;;22.00;55.60;;;;;;8460699;28;20043;-49
2023/06/13 12:40:09;;;;;;;0.80;0.50;;;22.00;55.50;;;;;;8454595;28;20478;-51
2023/06/13 12:44:10;;;;;;;0.93;0.73;;;22.00;55.50;;;;;;8426943;28;20035;-49
2023/06/13 12:48:18;;;;;;;0.70;0.60;;;22.00;55.60;;;;;;8408707;28;20389;-50
2023/06/13 12:52:21;;;;;;;1.38;0.50;;;22.00;55.60;;;;;;8426611;28;20093;-51
2023/06/13 12:56:23;;;;;;;0.43;0.43;;;22.00;55.60;;;;;;8426839;28;20032;-51
2023/06/13 13:00:24;;;;;;;0.75;0.75;;;22.00;55.60;;;;;;8439266;28;20558;-51
2023/06/13 13:04:29;;;;;;;0.70;0.60;;;22.00;55.60;;;;;;8460288;28;20405;-49
2023/06/13 13:08:30;;;;;;;0.60;0.55;;;22.00;55.50;;;;;;8460005;28;20055;-49
2023/06/13 13:12:30;;;;;;;0.60;0.60;;;22.00;55.50;;;;;;8432459;28;20032;-52
2023/06/13 13:16:31;;;;;;;0.70;0.60;;;22.00;55.50;;;;;;8408492;28;20024;-50
2023/06/13 13:20:32;;;;;;;0.82;0.60;;;22.00;55.60;;;;;;8426414;28;20110;-50
2023/06/13 13:24:33;;;;;;;0.57;0.57;;;22.00;55.50;;;;;;8430324;28;20741;-49
2023/06/13 13:28:33;;;;;;;0.80;0.75;;;22.00;55.50;;;;;;8414581;28;20032;-49
2023/06/13 13:32:35;;;;;;;0.63;0.60;;;22.00;55.50;;;;;;8464136;28;20047;-50
2023/06/13 13:36:36;;;;;;;0.60;0.60;;;22.00;55.50;;;;;;8466028;28;20038;-48
2023/06/13 13:40:37;;;;;;;0.63;0.63;;;22.00;55.40;;;;;;8454575;28;20031;-50
2023/06/13 13:44:37;;;;;;;0.60;0.60;;;22.00;55.50;;;;;;8432316;28;20081;-49
2023/06/13 13:48:38;;;;;;;0.60;0.60;;;22.00;55.50;;;;;;8432005;28;20020;-50
2023/06/13 13:52:39;;;;;;;0.63;0.52;;;22.00;55.40;;;;;;8431882;28;20028;-49
2023/06/13 13:56:40;;;;;;;0.70;0.60;;;22.00;55.40;;;;;;8431865;28;20064;-50
2023/06/13 14:00:41;;;;;;;0.75;0.60;;;22.00;55.40;;;;;;8446792;28;20024;-50
2023/06/13 14:04:41;;;;;;;0.60;0.60;;;22.10;55.30;;;;;;8465186;28;20160;-50
2023/06/13 14:08:42;;;;;;;0.52;0.50;;;22.10;55.30;;;;;;8465065;28;20048;-51
2023/06/13 14:12:44;;;;;;;0.70;0.40;;;22.10;55.30;;;;;;8435866;28;20478;-51
2023/06/13 14:16:44;;;;;;;1.33;0.70;;;22.10;55.30;;;;;;8431189;28;20036;-51
2023/06/13 14:20:45;;;;;;;0.65;0.55;;;22.10;55.80;;;;;;8431225;28;20112;-50
2023/06/13 14:24:46;;;;;;;0.70;0.70;;;22.10;55.30;;;;;;8430900;28;20036;-49
2023/06/13 14:28:46;;;;;;;0.52;0.52;;;22.10;55.30;;;;;;8412784;28;20544;-49
2023/06/13 14:32:47;;;;;;;0.55;0.55;;;22.10;55.30;;;;;;8463504;28;20038;-50
2023/06/13 14:36:53;;;;;;;0.60;0.60;;;22.10;55.30;;;;;;8445017;28;20032;-51
2023/06/13 14:40:55;;;;;;;0.63;0.63;;;22.10;55.30;;;;;;8450381;28;20401;-51
2023/06/13 14:44:55;;;;;;;0.70;0.70;;;22.10;55.30;;;;;;8430404;28;20036;-49
2023/06/13 14:48:56;;;;;;;0.75;0.70;;;22.10;55.20;;;;;;8430150;28;20028;-50
2023/06/13 14:52:57;;;;;;;0.50;0.50;;;22.10;55.20;;;;;;8430190;28;20051;-50
2023/06/13 14:56:57;;;;;;;0.60;0.60;;;22.10;55.30;;;;;;8430204;28;20090;-51
2023/06/13 15:00:58;;;;;;;0.95;0.68;;;22.10;55.20;;;;;;8429097;28;20043;-51
2023/06/13 15:04:59;;;;;;;0.63;0.63;;;22.10;55.30;;;;;;8463860;28;20054;-49
2023/06/13 15:09:00;;;;;;;0.60;0.60;;;22.10;55.30;;;;;;8463114;28;20039;-51
2023/06/13 15:13:01;;;;;;;0.82;0.52;;;22.10;55.30;;;;;;8431807;28;20028;-49
2023/06/13 15:17:02;;;;;;;0.60;0.60;;;22.10;55.30;;;;;;8429621;28;20451;-49
2023/06/13 15:21:06;;;;;;;0.73;0.73;;;22.10;55.30;;;;;;8429137;28;20090;-51
2023/06/13 15:25:07;;;;;;;0.55;0.50;;;22.10;55.30;;;;;;8428921;28;20085;-50
2023/06/13 15:29:08;;;;;;;0.70;0.70;;;22.10;55.30;;;;;;8430756;28;20103;-49
2023/06/13 15:33:08;;;;;;;0.70;0.70;;;22.10;55.30;;;;;;8462544;28;20035;-49
2023/06/13 15:37:09;;;;;;;0.98;0.60;;;22.00;55.30;;;;;;8462490;28;20031;-51
2023/06/13 15:41:10;;;;;;;0.90;0.70;;;22.10;55.40;;;;;;8446116;28;20115;-49
2023/06/13 15:45:10;;;;;;;0.60;0.60;;;22.00;55.40;;;;;;8427862;28;20497;-48
2023/06/13 15:49:11;;;;;;;0.70;0.55;;;22.00;55.30;;;;;;8428300;28;20067;-50
2023/06/13 15:53:12;;;;;;;0.77;0.77;;;22.10;55.40;;;;;;8428311;28;20107;-50
2023/06/13 15:57:12;;;;;;;0.40;0.40;;;22.10;55.40;;;;;;8428052;28;20052;-51
2023/06/13 16:01:14;;;;;;;0.47;0.47;;;22.00;55.40;;;;;;8447128;28;20038;-50
2023/06/13 16:05:14;;;;;;;;;;;22.00;55.40;;;;;;8461939;28;20038;-50
2023/06/13 16:09:15;;;;;;;0.77;0.60;;;22.00;55.30;;;;;;8461266;28;19926;-49
2023/06/13 16:13:15;;;;;;;0.68;0.68;;;22.00;55.30;;;;;;8427705;28;20502;-50
2023/06/13 16:17:16;;;;;;;0.52;0.50;;;22.10;55.40;;;;;;8427402;28;20512;-50
2023/06/13 16:21:17;;;;;;;0.68;0.52;;;22.00;55.30;;;;;;8427526;28;20486;-50
2023/06/13 16:25:17;;;;;;;0.60;0.57;;;22.00;55.30;;;;;;8427812;28;20493;-49
2023/06/13 16:29:18;;;;;;;0.57;0.57;;;22.00;55.30;;;;;;8430249;28;20023;-51
2023/06/13 16:33:18;;;;;;;0.95;0.82;;;22.00;55.30;;;;;;8460314;28;20119;-48
2023/06/13 16:37:22;;;;;;;1.17;0.88;;;22.00;55.30;;;;;;8460535;28;20027;-50
2023/06/13 16:41:22;;;;;;;1.23;0.93;;;22.10;55.00;;;;;;8441559;28;20032;-50
2023/06/13 16:45:24;;;;;;;1.25;0.90;;;22.10;54.60;;;;;;8440132;28;20063;-51
2023/06/13 16:49:25;;;;;;;2.45;0.70;;;22.10;55.10;;;;;;8414250;28;20031;-49
2023/06/13 16:53:26;;;;;;;0.70;0.70;;;22.10;54.90;;;;;;8433210;28;20042;-50
2023/06/13 16:57:26;;;;;;;;;;;22.10;54.80;;;;;;8461158;28;20044;-50
2023/06/13 17:01:27;;;;;;;1.03;0.83;;;22.20;54.60;;;;;;8446358;28;19959;-51
2023/06/13 17:05:27;;;;;;;0.95;0.80;;;22.20;54.30;;;;;;8465595;28;20044;-49
2023/06/13 17:09:28;;;;;;;1.92;0.70;;;22.20;54.60;;;;;;8465271;28;20043;-50
2023/06/13 17:13:29;;;;;;;1.33;0.90;;;22.20;54.40;;;;;;8433407;28;20059;-51
2023/06/13 17:17:29;;;;;;;1.40;1.10;;;22.30;54.30;;;;;;8433022;28;20035;-50
2023/06/13 17:21:30;;;;;;;1.02;0.90;;;22.30;54.20;;;;;;8439024;28;20271;-51
2023/06/13 17:25:31;;;;;;;1.35;0.90;;;22.30;54.20;;;;;;8466324;28;20047;-49
2023/06/13 17:29:32;;;;;;;1.27;0.75;;;22.30;54.20;;;;;;8466335;28;20092;-50
2023/06/13 17:33:32;;;;;;;2.60;1.05;;;22.30;54.10;;;;;;8466084;28;20060;-48
2023/06/13 17:37:34;;;;;;;1.17;0.80;;;22.30;53.80;;;;;;8465980;28;20031;-50
2023/06/13 17:41:35;;;;;;;1.65;1.15;;;22.30;54.10;;;;;;8447667;28;20398;-51
2023/06/13 17:45:35;;;;;;;1.17;0.90;;;22.30;54.00;;;;;;8465741;28;20494;-51
2023/06/13 17:49:37;;;;;;;1.33;0.90;;;22.30;53.90;;;;;;8465959;28;20035;-51
2023/06/13 17:53:37;;;;;;;1.30;1.10;;;22.30;54.00;;;;;;8457743;28;20106;-53
2023/06/13 17:57:38;;;;;;;1.27;0.85;;;22.30;53.70;;;;;;8443955;28;20031;-48
2023/06/13 18:01:38;;;;;;;2.20;0.88;;;22.30;53.80;;;;;;8434303;28;20430;-51
2023/06/13 18:05:39;;;;;;;1.45;1.35;;;22.30;53.60;;;;;;8431073;28;20071;-50
2023/06/13 18:09:40;;;;;;;1.98;1.20;;;22.30;53.60;;;;;;8442759;28;20036;-53
2023/06/13 18:13:40;;;;;;;3.22;1.00;;;22.30;53.80;;;;;;8439768;28;20636;-50
2023/06/13 18:17:41;;;;;;;1.63;1.30;;;22.30;53.90;;;;;;8463961;28;20036;-47
2023/06/13 18:21:42;;;;;;;1.30;1.20;;;22.30;54.10;;;;;;8464455;28;20499;-47
2023/06/13 18:25:43;;;;;;;2.08;1.10;;;22.30;54.20;;;;;;8458048;28;20157;-52
2023/06/13 18:29:43;;;;;;;;;;;22.30;54.60;;;;;;8437179;28;20054;-48
2023/06/13 18:33:44;;;;;;;2.83;1.03;;;22.40;54.60;;;;;;8444996;28;19912;-51
2023/06/13 18:37:46;;;;;;;3.17;1.00;;;22.40;55.70;;;;;;8430301;28;20538;-53
2023/06/13 18:41:47;;;;;;;3.90;1.55;;;22.40;55.70;;;;;;8445611;27;20020;-54
2023/06/13 18:45:48;;;;;;;1.13;1.00;;;22.50;56.10;;;;;;8431332;28;20024;-52
2023/06/13 18:49:48;;;;;;;1.60;1.10;;;22.40;56.40;;;;;;8461596;28;20031;-53
2023/06/13 18:53:49;;;;;;;3.88;2.17;;;22.50;56.70;;;;;;8438103;28;20028;-49
2023/06/13 18:57:50;;;;;;;2.20;1.27;;;22.50;56.50;;;;;;8463113;28;20046;-51
2023/06/13 19:01:51;;;;;;;3.90;1.35;;;22.50;56.70;;;;;;8473142;27;20031;-49
2023/06/13 19:05:51;;;;;;;3.70;1.38;;;22.50;56.40;;;;;;8478560;27;20126;-50
2023/06/13 19:09:53;;;;;;;8.88;1.23;;;22.50;56.90;;;;;;8475573;27;20596;-50
2023/06/13 19:13:53;;;;;;;3.83;1.60;;;22.50;56.90;;;;;;8486075;27;20035;-53
2023/06/13 19:17:55;;;;;;;9.23;1.60;;;22.50;56.70;;;;;;8466136;27;20488;-51
2023/06/13 19:21:56;;;;;;;5.72;1.63;;;22.50;56.90;;;;;;8461737;28;20518;-52
2023/06/13 19:25:58;;;;;;;7.47;2.60;;;22.60;56.30;;;;;;8462294;28;20410;-53
2023/06/13 19:29:59;;;;;;;12.88;2.55;;;22.50;57.40;;;;;;8462248;28;20092;-51
2023/06/13 19:34:02;;;;;;;17.95;2.65;;;22.60;57.70;;;;;;8462266;28;20172;-52
2023/06/13 19:38:03;;;;;;;12.75;2.55;;;22.60;58.10;;;;;;8462291;28;20037;-53
2023/06/13 19:42:05;;;;;;;4.00;1.95;;;22.60;58.40;;;;;;8438337;28;20111;-56
2023/06/13 19:46:06;;;;;;;11.23;3.15;;;22.60;58.60;;;;;;8443791;28;20138;-54
2023/06/13 19:50:07;;;;;;;14.48;2.28;;;22.60;58.40;;;;;;8426026;28;20035;-51
2023/06/13 19:54:08;;;;;;;20.90;2.78;;;22.50;58.00;;;;;;8428031;28;20050;-51
2023/06/13 19:58:09;;;;;;;11.38;2.70;;;22.60;58.00;;;;;;8427826;28;20035;-51
2023/06/13 20:02:12;;;;;;;9.23;2.65;;;22.70;57.90;;;;;;8428437;28;20084;-52
2023/06/13 20:06:13;;;;;;;11.93;2.20;;;22.70;57.90;;;;;;8410765;28;20051;-51
2023/06/13 20:10:14;;;;;;;11.70;2.60;;;22.70;57.70;;;;;;8410985;28;20038;-54
2023/06/13 20:14:15;;;;;;;11.00;2.60;;;22.70;57.70;;;;;;8427259;28;20044;-52
2023/06/13 20:18:15;;;;;;;17.40;4.35;;;22.70;57.60;;;;;;8427878;28;20067;-53
2023/06/13 20:22:16;;;;;;;14.70;3.10;;;22.70;57.50;;;;;;8424209;28;20047;-51
2023/06/13 20:26:18;;;;;;;13.70;2.78;;;22.70;56.90;;;;;;8426417;28;20039;-51
2023/06/13 20:30:20;;;;;;;14.00;3.80;;;22.70;56.50;;;;;;8412064;28;20032;-55
2023/06/13 20:34:20;;;;;;;10.80;4.97;;;22.70;56.70;;;;;;8423708;28;20127;-54
2023/06/13 20:38:21;;;;;;;13.10;5.47;;;22.70;56.60;;;;;;8426568;28;20036;-56
2023/06/13 20:42:28;;;;;;;20.73;6.95;;;22.70;56.60;;;;;;8426817;28;20040;-55
2023/06/13 20:46:29;;;;;;;20.80;8.55;;;22.70;53.30;;;;;;8427339;28;20946;-54
2023/06/13 20:50:30;;;;;;;15.95;7.45;;;22.60;53.50;;;;;;8427622;28;20066;-55
2023/06/13 20:54:32;;;;;;;;;;;22.70;54.60;;;;;;8427724;28;20750;-56
2023/06/13 20:58:33;;;;;;;16.90;10.75;;;22.70;53.20;;;;;;8427441;28;19915;-54
2023/06/13 21:02:33;;;;;;;17.27;10.27;;;22.60;50.40;;;;;;8427130;28;20114;-55